createdAt,value
2018-09-11T00:01:29.460Z,4.10
2018-09-11T00:03:58.009Z,4.23
2018-09-11T00:06:27.132Z,4.37
2018-09-11T00:08:56.413Z,4.00
2018-09-11T00:11:25.338Z,3.73
2018-09-11T00:13:53.902Z,4.37
2018-09-11T00:16:22.978Z,4.00
2018-09-11T00:18:52.526Z,4.30
2018-09-11T00:21:21.090Z,5.00
2018-09-11T00:23:49.642Z,4.03
2018-09-11T00:26:19.197Z,4.77
2018-09-11T00:28:47.786Z,4.60
2018-09-11T00:31:17.799Z,4.10
2018-09-11T00:33:46.375Z,4.27
2018-09-11T00:36:16.366Z,3.97
2018-09-11T00:38:44.906Z,3.77
2018-09-11T00:41:13.567Z,4.10
2018-09-11T00:43:42.107Z,4.70
2018-09-11T00:46:10.676Z,3.70
2018-09-11T00:48:39.301Z,4.17
2018-09-11T00:51:08.089Z,4.77
2018-09-11T00:53:36.665Z,4.40
2018-09-11T00:56:06.044Z,4.23
2018-09-11T00:58:34.608Z,4.33
2018-09-11T01:01:03.133Z,4.07
2018-09-11T01:03:32.661Z,3.80
2018-09-11T01:06:01.212Z,4.20
2018-09-11T01:08:29.777Z,4.17
2018-09-11T01:10:58.274Z,4.00
2018-09-11T01:13:36.805Z,3.70
2018-09-11T01:16:05.778Z,4.60
2018-09-11T01:18:34.679Z,4.27
2018-09-11T01:21:03.233Z,4.17
2018-09-11T01:23:31.858Z,4.83
2018-09-11T01:26:00.418Z,4.83
2018-09-11T01:28:28.950Z,4.20
2018-09-11T01:30:57.475Z,4.83
2018-09-11T01:33:26.305Z,4.53
2018-09-11T01:35:55.678Z,3.93
2018-09-11T01:38:24.214Z,5.10
2018-09-11T01:40:52.801Z,5.33
2018-09-11T01:43:21.483Z,4.27
2018-09-11T01:45:50.756Z,4.90
2018-09-11T01:49:22.305Z,4.40
2018-09-11T01:51:51.454Z,4.50
2018-09-11T01:54:19.982Z,4.50
2018-09-11T01:56:49.290Z,4.07
2018-09-11T01:59:17.851Z,4.43
2018-09-11T02:01:46.948Z,5.10
2018-09-11T02:04:15.477Z,4.43
2018-09-11T02:06:45.126Z,4.43
2018-09-11T02:10:17.298Z,4.60
2018-09-11T02:12:45.852Z,5.13
2018-09-11T02:15:14.518Z,5.13
2018-09-11T02:17:43.100Z,4.80
2018-09-11T02:20:11.692Z,5.00
2018-09-11T02:22:40.286Z,5.20
2018-09-11T02:25:09.509Z,7.77
2018-09-11T02:27:38.063Z,4.70
2018-09-11T02:30:06.722Z,4.60
2018-09-11T02:32:35.310Z,5.93
2018-09-11T02:35:03.984Z,5.10
2018-09-11T02:37:32.548Z,4.70
2018-09-11T02:40:01.049Z,5.50
2018-09-11T02:42:30.327Z,5.13
2018-09-11T02:44:59.661Z,5.00
2018-09-11T02:47:28.172Z,5.00
2018-09-11T02:49:58.020Z,4.60
2018-09-11T02:52:26.524Z,4.97
2018-09-11T02:54:58.441Z,4.90
2018-09-11T02:57:26.970Z,5.17
2018-09-11T02:59:56.674Z,5.13
2018-09-11T03:02:25.477Z,5.20
2018-09-11T03:04:55.158Z,5.10
2018-09-11T03:07:25.091Z,4.80
2018-09-11T03:09:53.617Z,5.13
2018-09-11T03:12:24.584Z,4.73
2018-09-11T03:14:53.087Z,5.03
2018-09-11T03:17:21.972Z,5.27
2018-09-11T03:19:50.532Z,4.90
2018-09-11T03:22:19.238Z,5.30
2018-09-11T03:24:47.733Z,4.47
2018-09-11T03:27:16.335Z,5.73
2018-09-11T03:29:45.522Z,5.00
2018-09-11T03:32:14.657Z,5.13
2018-09-11T03:34:43.170Z,5.40
2018-09-11T03:37:11.719Z,6.23
2018-09-11T03:39:40.222Z,5.43
2018-09-11T03:42:09.645Z,4.93
2018-09-11T03:44:38.439Z,5.10
2018-09-11T03:47:07.007Z,5.00
2018-09-11T03:49:36.117Z,5.37
2018-09-11T03:52:04.725Z,5.30
2018-09-11T03:54:33.637Z,5.10
2018-09-11T03:57:03.226Z,5.07
2018-09-11T03:59:31.787Z,4.17
2018-09-11T04:02:00.343Z,5.13
2018-09-11T04:04:28.891Z,5.03
2018-09-11T04:06:57.413Z,5.03
2018-09-11T04:09:26.726Z,5.07
2018-09-11T04:11:55.306Z,5.10
2018-09-11T04:14:23.813Z,5.47
2018-09-11T04:16:52.306Z,5.63
2018-09-11T04:19:20.846Z,4.67
2018-09-11T04:21:49.370Z,5.43
2018-09-11T04:24:18.762Z,5.90
2018-09-11T04:26:47.638Z,5.80
2018-09-11T04:29:17.313Z,4.90
2018-09-11T04:31:46.553Z,5.07
2018-09-11T04:34:15.337Z,5.17
2018-09-11T04:36:43.865Z,5.57
2018-09-11T04:39:13.142Z,4.83
2018-09-11T04:41:41.920Z,5.90
2018-09-11T04:44:10.446Z,5.43
2018-09-11T04:46:38.979Z,4.70
2018-09-11T04:49:07.510Z,6.17
2018-09-11T04:51:36.030Z,4.93
2018-09-11T04:54:05.277Z,5.10
2018-09-11T04:56:33.800Z,5.13
2018-09-11T04:59:02.356Z,5.37
2018-09-11T05:01:31.000Z,5.40
2018-09-11T05:04:00.309Z,5.40
2018-09-11T05:06:28.847Z,5.37
2018-09-11T05:08:57.779Z,5.73
2018-09-11T05:11:26.956Z,6.00
2018-09-11T05:13:55.558Z,5.90
2018-09-11T05:16:24.994Z,5.00
2018-09-11T05:18:53.538Z,5.67
2018-09-11T05:21:22.060Z,5.20
2018-09-11T05:23:50.642Z,5.43
2018-09-11T05:26:19.723Z,5.30
2018-09-11T05:28:48.911Z,5.23
2018-09-11T05:31:17.490Z,5.73
2018-09-11T05:33:46.122Z,5.40
2018-09-11T05:36:14.662Z,5.60
2018-09-11T05:38:43.268Z,5.63
2018-09-11T05:41:11.834Z,5.07
2018-09-11T05:43:40.403Z,5.00
2018-09-11T05:46:08.960Z,6.30
2018-09-11T05:48:37.550Z,6.27
2018-09-11T05:51:06.410Z,5.40
2018-09-11T05:53:34.974Z,5.77
2018-09-11T05:56:03.540Z,5.93
2018-09-11T05:58:32.203Z,5.13
2018-09-11T06:01:00.721Z,5.03
2018-09-11T06:03:29.261Z,5.80
2018-09-11T06:05:57.819Z,5.60
2018-09-11T06:08:26.398Z,5.67
2018-09-11T06:10:54.942Z,5.50
2018-09-11T06:13:23.475Z,5.93
2018-09-11T06:15:52.022Z,5.73
2018-09-11T06:18:20.594Z,5.80
2018-09-11T06:20:49.423Z,6.10
2018-09-11T06:23:17.969Z,5.83
2018-09-11T06:25:46.512Z,5.13
2018-09-11T06:28:15.362Z,5.13
2018-09-11T06:30:43.901Z,5.47
2018-09-11T06:33:12.449Z,6.07
2018-09-11T06:35:41.034Z,6.00
2018-09-11T06:38:09.720Z,5.60
2018-09-11T06:40:40.281Z,7.63
2018-09-11T06:43:08.874Z,5.93
2018-09-11T06:45:38.395Z,6.50
2018-09-11T06:48:09.850Z,5.10
2018-09-11T06:50:38.376Z,5.63
2018-09-11T06:53:06.962Z,5.60
2018-09-11T06:55:35.515Z,5.27
2018-09-11T06:58:04.128Z,5.23
2018-09-11T07:00:32.676Z,5.10
2018-09-11T07:03:01.235Z,5.27
2018-09-11T07:05:29.795Z,5.90
2018-09-11T07:07:58.382Z,5.07
2018-09-11T07:10:27.131Z,5.37
2018-09-11T07:12:55.967Z,5.33
2018-09-11T07:15:24.483Z,5.30
2018-09-11T07:17:53.014Z,5.00
2018-09-11T07:20:21.938Z,5.10
2018-09-11T07:22:50.191Z,5.10
2018-09-11T07:25:18.732Z,5.00
2018-09-11T07:27:47.297Z,5.40
2018-09-11T07:30:15.869Z,4.93
2018-09-11T07:32:44.410Z,5.03
2018-09-11T07:35:12.978Z,5.33
2018-09-11T07:37:41.556Z,4.90
2018-09-11T07:40:10.094Z,4.50
2018-09-11T07:42:38.656Z,4.70
2018-09-11T07:45:07.221Z,4.77
2018-09-11T07:47:35.785Z,4.60
2018-09-11T07:50:04.397Z,4.93
2018-09-11T07:52:32.976Z,4.50
2018-09-11T07:55:01.537Z,4.50
2018-09-11T07:57:30.127Z,4.07
2018-09-11T07:59:58.754Z,4.37
2018-09-11T08:02:27.552Z,5.40
2018-09-11T08:04:56.089Z,4.90
2018-09-11T08:07:24.644Z,5.10
2018-09-11T08:09:53.214Z,4.93
2018-09-11T08:12:21.794Z,4.97
2018-09-11T08:14:50.379Z,4.77
2018-09-11T08:17:18.915Z,5.00
2018-09-11T08:19:47.504Z,4.13
2018-09-11T08:22:16.015Z,4.83
2018-09-11T08:24:44.739Z,4.27
2018-09-11T08:27:13.262Z,4.70
2018-09-11T08:29:41.839Z,3.73
2018-09-11T08:32:10.565Z,3.47
2018-09-11T08:34:39.131Z,3.17
2018-09-11T08:37:07.646Z,3.17
2018-09-11T08:39:36.218Z,3.20
2018-09-11T08:42:04.793Z,3.30
2018-09-11T08:44:33.357Z,3.03
2018-09-11T08:47:01.981Z,3.53
2018-09-11T08:49:30.514Z,2.93
2018-09-11T08:51:59.088Z,2.80
2018-09-11T08:54:27.574Z,3.43
2018-09-11T08:56:56.083Z,3.20
2018-09-11T08:59:24.682Z,3.37
2018-09-11T09:01:53.238Z,3.40
2018-09-11T09:04:21.818Z,3.60
2018-09-11T09:06:50.381Z,3.40
2018-09-11T09:09:18.970Z,3.20
2018-09-11T09:11:47.476Z,3.60
2018-09-11T09:14:16.070Z,3.27
2018-09-11T09:16:45.086Z,3.10
2018-09-11T09:19:13.633Z,3.30
2018-09-11T09:21:42.169Z,3.63
2018-09-11T09:24:10.714Z,2.93
2018-09-11T09:26:39.217Z,3.50
2018-09-11T09:29:07.821Z,3.63
2018-09-11T09:31:36.391Z,2.90
2018-09-11T09:34:04.946Z,3.33
2018-09-11T09:36:33.605Z,3.90
2018-09-11T09:39:02.166Z,3.53
2018-09-11T09:41:31.062Z,4.40
2018-09-11T09:43:59.604Z,3.43
2018-09-11T09:46:28.146Z,3.83
2018-09-11T09:48:56.670Z,3.57
2018-09-11T09:51:25.276Z,3.87
2018-09-11T09:53:53.802Z,3.57
2018-09-11T09:56:22.389Z,3.63
2018-09-11T09:58:50.990Z,4.03
2018-09-11T10:01:24.862Z,3.30
2018-09-11T10:03:53.409Z,3.50
2018-09-11T10:06:21.978Z,3.93
2018-09-11T10:08:50.581Z,4.20
2018-09-11T10:11:19.174Z,3.07
2018-09-11T10:13:47.746Z,3.47
2018-09-11T10:16:16.347Z,3.43
2018-09-11T10:18:44.903Z,3.83
2018-09-11T10:21:13.480Z,3.37
2018-09-11T10:23:42.207Z,3.60
2018-09-11T10:26:10.738Z,3.60
2018-09-11T10:28:39.263Z,4.80
2018-09-11T10:31:07.857Z,3.03
2018-09-11T10:33:36.409Z,3.33
2018-09-11T10:36:04.999Z,4.47
2018-09-11T10:38:33.576Z,3.57
2018-09-11T10:41:02.114Z,2.90
2018-09-11T10:43:30.627Z,3.10
2018-09-11T10:45:59.203Z,3.43
2018-09-11T10:48:27.735Z,3.80
2018-09-11T10:50:56.274Z,3.60
2018-09-11T10:53:24.807Z,3.83
2018-09-11T10:55:53.380Z,4.30
2018-09-11T10:58:21.918Z,3.60
2018-09-11T11:00:50.515Z,3.57
2018-09-11T11:03:19.077Z,3.60
2018-09-11T11:05:47.664Z,3.87
2018-09-11T11:08:16.218Z,4.10
2018-09-11T11:10:44.949Z,3.40
2018-09-11T11:13:13.486Z,3.80
2018-09-11T11:15:42.042Z,3.20
2018-09-11T11:18:10.566Z,3.73
2018-09-11T11:20:39.863Z,3.40
2018-09-11T11:23:08.422Z,3.43
2018-09-11T11:25:36.998Z,3.40
2018-09-11T11:28:05.603Z,3.40
2018-09-11T11:30:34.133Z,3.80
2018-09-11T11:33:02.644Z,3.63
2018-09-11T11:35:31.883Z,3.07
2018-09-11T11:38:00.378Z,3.90
2018-09-11T11:40:28.926Z,3.70
2018-09-11T11:42:57.582Z,3.40
2018-09-11T11:45:26.157Z,3.73
2018-09-11T11:47:54.723Z,4.17
2018-09-11T11:50:23.268Z,3.83
2018-09-11T11:52:51.836Z,3.50
2018-09-11T11:55:20.377Z,4.30
2018-09-11T11:57:48.919Z,3.80
2018-09-11T12:00:17.544Z,4.30
2018-09-11T12:02:46.079Z,3.40
2018-09-11T12:05:14.595Z,3.47
2018-09-11T12:07:43.262Z,4.10
2018-09-11T12:10:11.773Z,4.37
2018-09-11T12:12:40.306Z,3.40
2018-09-11T12:15:08.931Z,3.77
2018-09-11T12:17:37.439Z,4.20
2018-09-11T12:20:06.059Z,2.97
2018-09-11T12:22:34.586Z,3.90
2018-09-11T12:25:04.101Z,4.00
2018-09-11T12:27:33.708Z,4.10
2018-09-11T12:30:02.365Z,4.30
2018-09-11T12:32:31.922Z,4.43
2018-09-11T12:35:02.811Z,4.20
2018-09-11T12:37:31.429Z,4.23
2018-09-11T12:40:00.015Z,4.30
2018-09-11T12:42:28.538Z,3.93
2018-09-11T12:44:57.139Z,4.10
2018-09-11T12:50:00.583Z,4.10
2018-09-11T12:52:29.148Z,4.47
2018-09-11T12:55:04.269Z,4.00
2018-09-11T12:57:32.755Z,4.00
2018-09-11T13:00:01.560Z,3.60
2018-09-11T13:02:33.103Z,4.03
2018-09-11T13:05:02.030Z,3.67
2018-09-11T13:07:40.915Z,3.93
2018-09-11T13:10:25.100Z,3.87
2018-09-11T13:13:00.649Z,4.70
2018-09-11T13:18:35.470Z,4.20
2018-09-11T13:21:16.943Z,3.87
2018-09-11T13:23:59.520Z,4.10
2018-09-11T13:26:28.257Z,3.73
2018-09-11T13:28:56.903Z,4.30
2018-09-11T13:31:25.426Z,3.73
2018-09-11T13:33:53.977Z,3.83
2018-09-11T13:36:27.046Z,3.80
2018-09-11T13:38:55.601Z,3.40
2018-09-11T13:41:38.400Z,3.93
2018-09-11T13:44:06.971Z,4.10
2018-09-11T13:46:35.510Z,3.33
2018-09-11T13:49:04.048Z,3.20
2018-09-11T13:51:33.010Z,3.80
2018-09-11T13:54:02.256Z,3.80
2018-09-11T13:56:30.807Z,3.13
2018-09-11T13:58:59.351Z,3.17
2018-09-11T14:01:27.891Z,3.20
2018-09-11T14:03:56.439Z,3.53
2018-09-11T14:06:24.963Z,3.03
2018-09-11T14:08:53.692Z,5.53
2018-09-11T14:11:22.262Z,4.03
2018-09-11T14:13:50.781Z,3.07
2018-09-11T14:16:19.285Z,3.00
2018-09-11T14:18:47.882Z,3.10
2018-09-11T14:21:16.396Z,3.00
2018-09-11T14:23:44.938Z,2.93
2018-09-11T14:26:13.521Z,3.23
2018-09-11T14:28:42.157Z,2.93
2018-09-11T14:31:10.750Z,3.60
2018-09-11T14:33:40.593Z,3.63
2018-09-11T14:36:09.218Z,3.40
2018-09-11T14:38:39.034Z,3.00
2018-09-11T14:41:08.980Z,3.27
2018-09-11T14:43:38.154Z,3.10
2018-09-11T14:46:06.700Z,3.90
2018-09-11T14:48:35.272Z,3.50
2018-09-11T14:51:04.361Z,3.13
2018-09-11T14:53:32.975Z,3.53
2018-09-11T14:56:04.067Z,3.23
2018-09-11T14:58:32.577Z,2.60
2018-09-11T15:01:01.250Z,2.90
2018-09-11T15:03:30.293Z,3.77
2018-09-11T15:05:58.926Z,3.33
2018-09-11T15:08:27.490Z,2.80
2018-09-11T15:10:56.065Z,3.47
2018-09-11T15:13:24.673Z,3.90
2018-09-11T15:15:53.206Z,3.40
2018-09-11T15:18:21.748Z,3.20
2018-09-11T15:20:50.458Z,3.37
2018-09-11T15:23:19.002Z,3.47
2018-09-11T15:25:47.524Z,4.10
2018-09-11T15:28:16.071Z,3.93
2018-09-11T15:30:44.614Z,3.00
2018-09-11T15:33:13.232Z,3.30
2018-09-11T15:35:41.791Z,4.17
2018-09-11T15:38:10.290Z,3.73
2018-09-11T15:40:38.812Z,3.27
2018-09-11T15:43:07.410Z,3.40
2018-09-11T15:45:35.975Z,3.50
2018-09-11T15:48:04.490Z,3.20
2018-09-11T15:50:33.113Z,3.40
2018-09-11T15:53:01.687Z,2.93
2018-09-11T15:55:30.227Z,3.50
2018-09-11T15:57:58.829Z,3.60
2018-09-11T16:00:27.348Z,2.53
2018-09-11T16:02:55.843Z,3.00
2018-09-11T16:05:24.404Z,2.90
2018-09-11T16:07:52.998Z,3.33
2018-09-11T16:10:21.580Z,3.30
2018-09-11T16:12:50.318Z,3.57
2018-09-11T16:15:18.861Z,2.97
2018-09-11T16:17:47.419Z,3.43
2018-09-11T16:20:15.982Z,3.60
2018-09-11T16:22:45.716Z,3.00
2018-09-11T16:25:14.245Z,3.53
2018-09-11T16:27:43.319Z,3.30
2018-09-11T16:30:12.072Z,3.53
2018-09-11T16:32:41.084Z,3.73
2018-09-11T16:35:09.990Z,3.80
2018-09-11T16:37:40.731Z,3.70
2018-09-11T16:40:09.486Z,3.77
2018-09-11T16:42:38.023Z,3.10
2018-09-11T16:45:07.048Z,3.47
2018-09-11T16:47:35.570Z,3.13
2018-09-11T16:50:04.386Z,3.80
2018-09-11T16:52:32.935Z,3.77
2018-09-11T16:55:01.505Z,3.43
2018-09-11T16:57:30.074Z,3.53
2018-09-11T16:59:58.654Z,6.50
2018-09-11T17:02:27.428Z,3.93
2018-09-11T17:04:55.985Z,4.90
2018-09-11T17:07:24.914Z,4.57
2018-09-11T17:09:53.483Z,4.97
2018-09-11T17:12:22.354Z,3.80
2018-09-11T17:14:52.662Z,4.10
2018-09-11T17:17:21.546Z,4.20
2018-09-11T17:19:50.803Z,4.20
2018-09-11T17:22:20.019Z,4.00
2018-09-11T17:24:48.554Z,3.60
2018-09-11T17:27:17.122Z,3.80
2018-09-11T17:29:47.382Z,3.50
2018-09-11T17:32:15.873Z,3.00
2018-09-11T17:34:44.817Z,3.90
2018-09-11T17:37:14.024Z,3.50
2018-09-11T17:39:42.697Z,3.70
2018-09-11T17:42:12.266Z,4.00
2018-09-11T17:44:40.786Z,3.50
2018-09-11T17:47:09.317Z,3.17
2018-09-11T17:49:39.645Z,3.40
2018-09-11T17:52:09.701Z,3.90
2018-09-11T17:54:39.002Z,3.50
2018-09-11T17:57:08.325Z,3.33
2018-09-11T17:59:38.002Z,4.30
2018-09-11T18:02:07.749Z,3.57
2018-09-11T18:04:37.509Z,3.80
2018-09-11T18:07:06.539Z,4.03
2018-09-11T18:09:35.207Z,3.40
2018-09-11T18:12:08.875Z,3.93
2018-09-11T18:14:42.312Z,3.97
2018-09-11T18:17:14.977Z,4.60
2018-09-11T18:19:44.881Z,3.80
2018-09-11T18:22:14.289Z,4.27
2018-09-11T18:24:43.907Z,3.80
2018-09-11T18:27:13.149Z,3.77
2018-09-11T18:29:42.048Z,3.90
2018-09-11T18:32:11.605Z,3.77
2018-09-11T18:34:40.861Z,4.73
2018-09-11T18:37:09.428Z,4.10
2018-09-11T18:39:38.479Z,3.80
2018-09-11T18:42:07.621Z,3.80
2018-09-11T18:44:36.922Z,3.43
2018-09-11T18:47:22.625Z,4.00
2018-09-11T18:49:52.070Z,4.10
2018-09-11T18:52:22.933Z,4.00
2018-09-11T18:54:52.900Z,4.10
2018-09-11T18:57:24.199Z,3.80
2018-09-11T18:59:52.879Z,4.10
2018-09-11T19:02:21.970Z,3.90
2018-09-11T19:04:50.806Z,3.70
2018-09-11T19:07:20.089Z,4.50
2018-09-11T19:09:48.609Z,4.40
2018-09-11T19:12:17.601Z,4.53
2018-09-11T19:14:46.061Z,3.90
2018-09-11T19:17:14.609Z,3.97
2018-09-11T19:19:43.224Z,4.00
2018-09-11T19:22:11.989Z,3.63
2018-09-11T19:24:40.748Z,4.40
2018-09-11T19:27:09.390Z,4.17
2018-09-11T19:29:38.019Z,3.63
2018-09-11T19:32:06.957Z,3.57
2018-09-11T19:34:35.927Z,3.57
2018-09-11T19:37:04.798Z,3.70
2018-09-11T19:39:33.365Z,4.33
2018-09-11T19:42:01.931Z,3.90
2018-09-11T19:44:30.634Z,3.77
2018-09-11T19:47:00.090Z,3.53
2018-09-11T19:49:28.597Z,3.57
2018-09-11T19:51:57.451Z,3.27
2018-09-11T19:54:25.973Z,3.20
2018-09-11T19:56:54.515Z,3.77
2018-09-11T19:59:24.883Z,3.80
2018-09-11T20:01:53.580Z,3.23
2018-09-11T20:04:22.062Z,4.00
2018-09-11T20:06:50.706Z,3.47
2018-09-11T20:09:19.243Z,3.80
2018-09-11T20:11:47.782Z,3.07
2018-09-11T20:14:16.318Z,3.80
2018-09-11T20:16:44.942Z,3.50
2018-09-11T20:19:13.457Z,4.03
2018-09-11T20:21:42.207Z,4.20
2018-09-11T20:24:10.738Z,4.03
2018-09-11T20:26:39.299Z,4.73
2018-09-11T20:29:07.926Z,3.67
2018-09-11T20:31:36.507Z,3.70
2018-09-11T20:34:05.074Z,3.50
2018-09-11T20:36:33.607Z,3.60
2018-09-11T20:39:02.584Z,3.47
2018-09-11T20:41:31.114Z,4.00
2018-09-11T20:43:59.632Z,3.70
2018-09-11T20:46:28.181Z,3.63
2018-09-11T20:48:56.755Z,4.10
2018-09-11T20:51:25.340Z,3.97
2018-09-11T20:53:53.823Z,3.87
2018-09-11T20:56:22.370Z,3.90
2018-09-11T20:58:51.026Z,3.80
2018-09-11T21:01:19.622Z,3.70
2018-09-11T21:03:49.034Z,4.20
2018-09-11T21:06:17.595Z,3.93
2018-09-11T21:08:46.147Z,3.50
2018-09-11T21:11:14.674Z,3.60
2018-09-11T21:13:43.388Z,3.37
2018-09-11T21:16:11.971Z,3.60
2018-09-11T21:18:40.514Z,3.90
2018-09-11T21:21:09.077Z,3.87
2018-09-11T21:23:37.574Z,4.33
2018-09-11T21:26:06.117Z,3.67
2018-09-11T21:28:34.678Z,3.87
2018-09-11T21:31:03.536Z,4.00
2018-09-11T21:33:32.098Z,3.87
2018-09-11T21:36:00.624Z,3.77
2018-09-11T21:38:29.302Z,3.63
2018-09-11T21:40:57.831Z,4.17
2018-09-11T21:43:26.356Z,4.30
2018-09-11T21:45:54.896Z,3.53
2018-09-11T21:48:23.460Z,4.00
2018-09-11T21:50:52.078Z,3.87
2018-09-11T21:53:20.663Z,4.10
2018-09-11T21:55:49.285Z,3.53
2018-09-11T21:58:17.894Z,3.87
2018-09-11T22:00:51.815Z,4.27
2018-09-11T22:03:20.432Z,4.07
2018-09-11T22:05:49.067Z,3.93
2018-09-11T22:08:17.549Z,3.67
2018-09-11T22:10:46.084Z,4.07
2018-09-11T22:13:14.658Z,3.90
2018-09-11T22:15:43.167Z,4.03
2018-09-11T22:18:11.763Z,3.83
2018-09-11T22:20:40.339Z,3.80
2018-09-11T22:23:08.910Z,4.20
2018-09-11T22:25:37.443Z,3.77
2018-09-11T22:28:06.038Z,3.97
2018-09-11T22:30:34.562Z,3.80
2018-09-11T22:33:03.100Z,4.07
2018-09-11T22:35:31.703Z,4.17
2018-09-11T22:38:00.870Z,4.40
2018-09-11T22:40:29.422Z,4.07
2018-09-11T22:42:58.057Z,4.23
2018-09-11T22:45:26.632Z,4.70
2018-09-11T22:47:55.218Z,4.37
2018-09-11T22:50:23.787Z,4.00
2018-09-11T22:52:52.346Z,4.03
2018-09-11T22:55:20.890Z,4.23
2018-09-11T22:57:49.452Z,4.10
2018-09-11T23:00:18.011Z,4.97
2018-09-11T23:02:46.586Z,4.43
2018-09-11T23:05:15.135Z,4.10
2018-09-11T23:07:43.699Z,4.57
2018-09-11T23:10:12.264Z,4.33
2018-09-11T23:12:40.778Z,4.47
2018-09-11T23:15:09.381Z,4.40
2018-09-11T23:17:37.993Z,4.83
2018-09-11T23:20:06.616Z,4.57
2018-09-11T23:22:35.175Z,4.33
2018-09-11T23:25:03.734Z,4.30
2018-09-11T23:27:32.313Z,4.53
2018-09-11T23:30:00.819Z,4.20
2018-09-11T23:32:29.498Z,4.50
2018-09-11T23:34:58.010Z,4.13
2018-09-11T23:37:26.610Z,4.70
2018-09-11T23:39:55.170Z,4.60
2018-09-11T23:42:23.738Z,4.47
2018-09-11T23:44:52.244Z,5.40
2018-09-11T23:47:20.834Z,4.17
2018-09-11T23:49:49.364Z,4.33
2018-09-11T23:52:18.086Z,3.77
2018-09-11T23:54:46.607Z,4.20
2018-09-11T23:57:15.168Z,4.30
2018-09-11T23:59:43.768Z,4.27
